createdAt,value
2018-03-19T00:01:10.315Z,1009.38
2018-03-19T00:03:11.886Z,1009.35
2018-03-19T00:05:13.697Z,1009.33
2018-03-19T00:07:16.094Z,1009.31
2018-03-19T00:09:17.590Z,1009.24
2018-03-19T00:11:19.498Z,1009.31
2018-03-19T00:13:21.535Z,1009.28
2018-03-19T00:15:23.838Z,1009.32
2018-03-19T00:17:26.081Z,1009.33
2018-03-19T00:19:27.689Z,1009.28
2018-03-19T00:21:29.634Z,1009.25
2018-03-19T00:23:31.594Z,1009.22
2018-03-19T00:25:33.358Z,1009.17
2018-03-19T00:27:35.352Z,1009.18
2018-03-19T00:29:37.626Z,1009.25
2018-03-19T00:31:39.437Z,1009.21
2018-03-19T00:33:41.182Z,1009.04
2018-03-19T00:35:43.420Z,1009.18
2018-03-19T00:37:45.784Z,1009.20
2018-03-19T00:39:47.487Z,1009.22
2018-03-19T00:41:49.151Z,1009.21
2018-03-19T00:43:50.775Z,1009.19
2018-03-19T00:45:52.438Z,1009.26
2018-03-19T00:47:54.738Z,1009.20
2018-03-19T00:49:56.354Z,1009.27
2018-03-19T00:51:58.306Z,1009.25
2018-03-19T00:54:00.264Z,1009.23
2018-03-19T00:56:02.690Z,1009.10
2018-03-19T00:58:04.602Z,1009.19
2018-03-19T01:00:06.356Z,1009.16
2018-03-19T01:02:08.070Z,1009.20
2018-03-19T01:04:09.874Z,1009.19
2018-03-19T01:06:11.594Z,1009.17
2018-03-19T01:08:13.366Z,1009.15
2018-03-19T01:10:15.702Z,1009.15
2018-03-19T01:12:17.287Z,1009.17
2018-03-19T01:14:19.033Z,1009.08
2018-03-19T01:16:20.822Z,1009.14
2018-03-19T01:18:22.602Z,1009.11
2018-03-19T01:20:24.290Z,1009.10
2018-03-19T01:22:25.921Z,1009.12
2018-03-19T01:24:28.195Z,1009.12
2018-03-19T01:26:30.406Z,1009.13
2018-03-19T01:28:32.110Z,1009.15
2018-03-19T01:30:34.438Z,1009.10
2018-03-19T01:32:36.089Z,1009.12
2018-03-19T01:34:37.854Z,1009.12
2018-03-19T01:36:40.103Z,1009.13
2018-03-19T01:38:42.419Z,1009.10
2018-03-19T01:40:44.034Z,1009.11
2018-03-19T01:42:45.790Z,1009.15
2018-03-19T01:44:47.735Z,1009.19
2018-03-19T01:46:49.658Z,1009.18
2018-03-19T01:48:51.585Z,1009.17
2018-03-19T01:50:54.047Z,1009.15
2018-03-19T01:52:56.493Z,1009.18
2018-03-19T01:54:58.934Z,1009.10
2018-03-19T01:57:00.906Z,1009.10
2018-03-19T01:59:02.763Z,1009.10
2018-03-19T02:01:04.478Z,1009.11
2018-03-19T02:03:06.186Z,1009.10
2018-03-19T02:05:07.969Z,1009.09
2018-03-19T02:07:09.713Z,1009.04
2018-03-19T02:09:11.447Z,1009.05
2018-03-19T02:11:13.219Z,1009.02
2018-03-19T02:13:14.916Z,1008.96
2018-03-19T02:15:16.639Z,1009.00
2018-03-19T02:17:18.895Z,1008.99
2018-03-19T02:19:21.139Z,1008.97
2018-03-19T02:21:22.884Z,1008.97
2018-03-19T02:23:24.587Z,1008.95
2018-03-19T02:25:26.292Z,1008.98
2018-03-19T02:27:28.037Z,1008.98
2018-03-19T02:29:29.764Z,1008.96
2018-03-19T02:31:31.405Z,1008.96
2018-03-19T02:33:33.285Z,1008.99
2018-03-19T02:35:35.078Z,1008.95
2018-03-19T02:37:36.932Z,1008.98
2018-03-19T02:39:39.190Z,1009.08
2018-03-19T02:41:40.828Z,1009.05
2018-03-19T02:43:43.209Z,1009.04
2018-03-19T02:45:45.472Z,1009.08
2018-03-19T02:47:47.173Z,1009.08
2018-03-19T02:49:49.038Z,1009.11
2018-03-19T02:51:50.702Z,1009.08
2018-03-19T02:53:52.380Z,1009.09
2018-03-19T02:55:53.954Z,1009.11
2018-03-19T02:57:56.311Z,1009.11
2018-03-19T02:59:58.047Z,1009.11
2018-03-19T03:01:59.661Z,1009.17
2018-03-19T03:04:01.414Z,1009.13
2018-03-19T03:06:03.524Z,1009.12
2018-03-19T03:08:05.279Z,1009.13
2018-03-19T03:10:06.918Z,1009.09
2018-03-19T03:12:08.647Z,1009.20
2018-03-19T03:14:10.373Z,1009.13
2018-03-19T03:16:12.099Z,1009.15
2018-03-19T03:18:13.960Z,1009.20
2018-03-19T03:20:15.933Z,1009.24
2018-03-19T03:22:17.671Z,1009.29
2018-03-19T03:24:19.508Z,1009.34
2018-03-19T03:26:21.236Z,1009.36
2018-03-19T03:28:22.903Z,1009.29
2018-03-19T03:30:24.587Z,1009.28
2018-03-19T03:32:26.537Z,1009.28
2018-03-19T03:34:28.177Z,1009.25
2018-03-19T03:36:29.839Z,1009.27
2018-03-19T03:38:31.677Z,1009.24
2018-03-19T03:40:33.995Z,1009.20
2018-03-19T03:42:35.691Z,1009.24
2018-03-19T03:44:37.532Z,1009.26
2018-03-19T03:46:39.841Z,1009.27
2018-03-19T03:48:41.790Z,1009.26
2018-03-19T03:50:43.771Z,1009.27
2018-03-19T03:52:45.835Z,1009.24
2018-03-19T03:54:47.828Z,1009.26
2018-03-19T03:56:49.740Z,1009.23
2018-03-19T03:58:51.651Z,1009.23
2018-03-19T04:00:53.347Z,1009.22
2018-03-19T04:02:55.288Z,1009.19
2018-03-19T04:04:57.010Z,1009.18
2018-03-19T04:06:58.692Z,1009.25
2018-03-19T04:09:00.425Z,1009.19
2018-03-19T04:11:02.157Z,1009.26
2018-03-19T04:13:04.285Z,1009.24
2018-03-19T04:15:06.185Z,1009.31
2018-03-19T04:17:07.822Z,1009.31
2018-03-19T04:19:09.599Z,1009.31
2018-03-19T04:21:11.268Z,1009.35
2018-03-19T04:23:13.186Z,1009.35
2018-03-19T04:25:14.941Z,1009.36
2018-03-19T04:27:17.191Z,1009.36
2018-03-19T04:29:18.848Z,1009.34
2018-03-19T04:31:20.587Z,1009.33
2018-03-19T04:33:22.361Z,1009.32
2018-03-19T04:35:24.480Z,1009.33
2018-03-19T04:37:26.538Z,1009.26
2018-03-19T04:39:28.807Z,1009.32
2018-03-19T04:41:30.424Z,1009.36
2018-03-19T04:43:32.069Z,1009.37
2018-03-19T04:45:33.843Z,1009.35
2018-03-19T04:47:35.475Z,1009.40
2018-03-19T04:49:37.266Z,1009.35
2018-03-19T04:51:38.998Z,1009.35
2018-03-19T04:53:41.299Z,1009.29
2018-03-19T04:55:43.695Z,1009.35
2018-03-19T04:57:45.426Z,1009.32
2018-03-19T04:59:47.183Z,1009.32
2018-03-19T05:01:49.247Z,1009.36
2018-03-19T05:03:51.009Z,1009.36
2018-03-19T05:05:52.986Z,1009.35
2018-03-19T05:07:55.227Z,1009.35
2018-03-19T05:09:57.508Z,1009.37
2018-03-19T05:11:59.639Z,1009.35
2018-03-19T05:14:01.312Z,1009.42
2018-03-19T05:16:03.047Z,1009.42
2018-03-19T05:18:05.275Z,1009.43
2018-03-19T05:20:07.149Z,1009.46
2018-03-19T05:22:09.430Z,1009.41
2018-03-19T05:24:11.330Z,1009.39
2018-03-19T05:26:12.992Z,1009.44
2018-03-19T05:28:14.758Z,1009.43
2018-03-19T05:30:17.153Z,1009.48
2018-03-19T05:32:18.892Z,1009.55
2018-03-19T05:34:20.917Z,1009.57
2018-03-19T05:36:22.621Z,1009.61
2018-03-19T05:38:24.682Z,1009.63
2018-03-19T05:40:26.368Z,1009.64
2018-03-19T05:42:27.978Z,1009.65
2018-03-19T05:44:29.838Z,1009.62
2018-03-19T05:46:31.615Z,1009.68
2018-03-19T05:48:33.340Z,1009.65
2018-03-19T05:50:36.189Z,1009.71
2018-03-19T05:52:37.952Z,1009.71
2018-03-19T05:54:39.698Z,1009.75
2018-03-19T05:56:42.036Z,1009.72
2018-03-19T05:58:43.781Z,1009.70
2018-03-19T06:00:45.484Z,1009.76
2018-03-19T06:02:47.583Z,1009.78
2018-03-19T06:04:49.356Z,1009.84
2018-03-19T06:06:51.756Z,1009.80
2018-03-19T06:08:53.665Z,1009.88
2018-03-19T06:10:55.615Z,1009.85
2018-03-19T06:12:57.524Z,1009.78
2018-03-19T06:14:59.456Z,1009.81
2018-03-19T06:17:01.354Z,1009.88
2018-03-19T06:19:03.232Z,1009.90
2018-03-19T06:21:05.263Z,1009.85
2018-03-19T06:23:07.016Z,1009.92
2018-03-19T06:25:08.938Z,1009.90
2018-03-19T06:27:10.846Z,1009.92
2018-03-19T06:29:13.104Z,1009.97
2018-03-19T06:31:15.375Z,1010.02
2018-03-19T06:33:17.017Z,1010.01
2018-03-19T06:35:18.950Z,1010.06
2018-03-19T06:37:20.623Z,1010.06
2018-03-19T06:39:22.289Z,1010.07
2018-03-19T06:41:24.240Z,1010.07
2018-03-19T06:43:25.906Z,1010.09
2018-03-19T06:45:27.728Z,1010.02
2018-03-19T06:47:29.504Z,1010.13
2018-03-19T06:49:31.591Z,1010.14
2018-03-19T06:51:33.101Z,1010.15
2018-03-19T06:53:35.336Z,1010.19
2018-03-19T06:55:37.272Z,1010.14
2018-03-19T06:57:39.001Z,1010.20
2018-03-19T06:59:41.212Z,1010.19
2018-03-19T07:01:43.389Z,1010.23
2018-03-19T07:03:45.259Z,1010.21
2018-03-19T07:05:47.102Z,1010.26
2018-03-19T07:07:49.279Z,1010.22
2018-03-19T07:09:51.297Z,1010.27
2018-03-19T07:11:53.110Z,1010.30
2018-03-19T07:13:55.262Z,1010.34
2018-03-19T07:15:57.145Z,1010.33
2018-03-19T07:17:59.336Z,1010.31
2018-03-19T07:20:01.021Z,1010.30
2018-03-19T07:22:03.263Z,1010.37
2018-03-19T07:24:05.367Z,1010.39
2018-03-19T07:26:07.047Z,1010.42
2018-03-19T07:28:09.068Z,1010.36
2018-03-19T07:30:11.231Z,1010.44
2018-03-19T07:32:12.918Z,1010.43
2018-03-19T07:34:15.169Z,1010.44
2018-03-19T07:36:16.833Z,1010.48
2018-03-19T07:38:18.564Z,1010.52
2018-03-19T07:40:20.336Z,1010.53
2018-03-19T07:42:22.376Z,1010.58
2018-03-19T07:44:24.089Z,1010.51
2018-03-19T07:46:25.803Z,1010.64
2018-03-19T07:48:27.524Z,1010.59
2018-03-19T07:50:29.484Z,1010.66
2018-03-19T07:52:31.166Z,1010.67
2018-03-19T07:54:33.052Z,1010.68
2018-03-19T07:56:35.835Z,1010.70
2018-03-19T07:58:37.875Z,1010.62
2018-03-19T08:00:40.168Z,1010.60
2018-03-19T08:02:41.881Z,1010.59
2018-03-19T08:04:43.585Z,1010.67
2018-03-19T08:06:45.259Z,1010.67
2018-03-19T08:08:46.965Z,1010.77
2018-03-19T08:10:48.828Z,1010.70
2018-03-19T08:12:50.703Z,1010.73
2018-03-19T08:14:52.261Z,1010.73
2018-03-19T08:16:53.969Z,1010.72
2018-03-19T08:18:55.852Z,1010.72
2018-03-19T08:20:57.872Z,1010.67
2018-03-19T08:22:59.527Z,1010.65
2018-03-19T08:25:01.462Z,1010.70
2018-03-19T08:27:03.176Z,1010.67
2018-03-19T08:29:04.941Z,1010.67
2018-03-19T08:31:06.704Z,1010.56
2018-03-19T08:33:08.436Z,1010.51
2018-03-19T08:35:10.566Z,1010.58
2018-03-19T08:37:12.223Z,1010.58
2018-03-19T08:39:14.545Z,1010.60
2018-03-19T08:41:16.212Z,1010.65
2018-03-19T08:43:18.133Z,1010.57
2018-03-19T08:45:19.795Z,1010.60
2018-03-19T08:47:22.160Z,1010.62
2018-03-19T08:49:24.360Z,1010.55
2018-03-19T08:51:26.303Z,1010.60
2018-03-19T08:53:28.556Z,1010.66
2018-03-19T08:55:30.571Z,1010.65
2018-03-19T08:57:32.149Z,1010.62
2018-03-19T08:59:33.826Z,1010.63
2018-03-19T09:01:35.465Z,1010.63
2018-03-19T09:03:37.061Z,1010.65
2018-03-19T09:05:38.758Z,1010.64
2018-03-19T09:07:40.385Z,1010.65
2018-03-19T09:09:42.065Z,1010.68
2018-03-19T09:11:43.740Z,1010.70
2018-03-19T09:13:45.703Z,1010.70
2018-03-19T09:15:47.575Z,1010.68
2018-03-19T09:17:49.969Z,1010.63
2018-03-19T09:19:51.602Z,1010.62
2018-03-19T09:21:53.259Z,1010.72
2018-03-19T09:23:55.005Z,1010.70
2018-03-19T09:25:57.297Z,1010.69
2018-03-19T09:27:59.095Z,1010.66
2018-03-19T09:30:00.827Z,1010.68
2018-03-19T09:32:02.584Z,1010.70
2018-03-19T09:34:04.278Z,1010.75
2018-03-19T09:36:06.225Z,1010.80
2018-03-19T09:38:07.990Z,1010.78
2018-03-19T09:40:10.358Z,1010.84
2018-03-19T09:42:12.049Z,1010.80
2018-03-19T09:44:14.397Z,1010.84
2018-03-19T09:46:16.556Z,1010.83
2018-03-19T09:48:19.378Z,1010.79
2018-03-19T09:50:21.249Z,1010.87
2018-03-19T09:52:22.881Z,1010.88
2018-03-19T09:54:24.619Z,1010.89
2018-03-19T09:56:26.488Z,1010.88
2018-03-19T09:58:28.153Z,1010.85
2018-03-19T10:00:29.849Z,1010.79
2018-03-19T10:02:32.189Z,1010.87
2018-03-19T10:04:34.177Z,1010.79
2018-03-19T10:06:35.854Z,1010.83
2018-03-19T10:08:37.649Z,1010.84
2018-03-19T10:10:39.636Z,1010.86
2018-03-19T10:12:41.228Z,1010.89
2018-03-19T10:14:42.967Z,1010.87
2018-03-19T10:16:44.895Z,1010.86
2018-03-19T10:18:47.384Z,1010.84
2018-03-19T10:20:49.048Z,1010.77
2018-03-19T10:22:50.743Z,1010.74
2018-03-19T10:24:53.097Z,1010.76
2018-03-19T10:26:55.515Z,1010.72
2018-03-19T10:28:57.882Z,1010.76
2018-03-19T10:30:59.633Z,1010.74
2018-03-19T10:33:01.333Z,1010.71
2018-03-19T10:35:03.084Z,1010.79
2018-03-19T10:37:04.787Z,1010.78
2018-03-19T10:39:06.512Z,1010.76
2018-03-19T10:41:08.147Z,1010.77
2018-03-19T10:43:09.994Z,1010.79
2018-03-19T10:45:11.866Z,1010.80
2018-03-19T10:47:13.846Z,1010.82
2018-03-19T10:49:15.672Z,1010.82
2018-03-19T10:51:18.237Z,1010.80
2018-03-19T10:53:20.174Z,1010.75
2018-03-19T10:55:22.694Z,1010.74
2018-03-19T10:57:24.663Z,1010.72
2018-03-19T10:59:26.549Z,1010.78
2018-03-19T11:01:28.167Z,1010.68
2018-03-19T11:03:29.933Z,1010.68
2018-03-19T11:05:31.613Z,1010.67
2018-03-19T11:07:34.127Z,1010.65
2018-03-19T11:09:35.933Z,1010.70
2018-03-19T11:11:37.716Z,1010.62
2018-03-19T11:13:39.620Z,1010.58
2018-03-19T11:15:41.385Z,1010.56
2018-03-19T11:17:43.038Z,1010.56
2018-03-19T11:19:44.862Z,1010.63
2018-03-19T11:21:46.568Z,1010.60
2018-03-19T11:23:48.405Z,1010.55
2018-03-19T11:25:50.883Z,1010.52
2018-03-19T11:27:52.649Z,1010.55
2018-03-19T11:29:55.209Z,1010.41
2018-03-19T11:31:57.529Z,1010.57
2018-03-19T11:33:59.197Z,1010.45
2018-03-19T11:36:00.972Z,1010.50
2018-03-19T11:38:02.659Z,1010.53
2018-03-19T11:40:04.498Z,1010.46
2018-03-19T11:42:06.904Z,1010.47
2018-03-19T11:44:08.788Z,1010.52
2018-03-19T11:46:11.078Z,1010.55
2018-03-19T11:48:12.910Z,1010.49
2018-03-19T11:50:14.653Z,1010.53
2018-03-19T11:52:16.524Z,1010.54
2018-03-19T11:54:18.252Z,1010.52
2018-03-19T11:56:20.107Z,1010.54
2018-03-19T11:58:22.534Z,1010.47
2018-03-19T12:00:24.190Z,1010.56
2018-03-19T12:02:25.898Z,1010.50
2018-03-19T12:04:27.794Z,1010.57
2018-03-19T12:06:29.684Z,1010.51
2018-03-19T12:08:31.395Z,1010.42
2018-03-19T12:10:33.115Z,1010.40
2018-03-19T12:12:34.803Z,1010.42
2018-03-19T12:14:36.581Z,1010.35
2018-03-19T12:16:38.554Z,1010.45
2018-03-19T12:18:40.600Z,1010.49
2018-03-19T12:20:42.234Z,1010.36
2018-03-19T12:22:43.934Z,1010.42
2018-03-19T12:24:45.651Z,1010.46
2018-03-19T12:26:47.505Z,1010.42
2018-03-19T12:28:49.164Z,1010.46
2018-03-19T12:30:50.842Z,1010.39
2018-03-19T12:32:52.580Z,1010.37
2018-03-19T12:34:55.143Z,1010.31
2018-03-19T12:36:56.781Z,1010.39
2018-03-19T12:38:58.972Z,1010.42
2018-03-19T12:41:00.908Z,1010.38
2018-03-19T12:43:02.861Z,1010.42
2018-03-19T12:45:05.367Z,1010.36
2018-03-19T12:47:07.096Z,1010.38
2018-03-19T12:49:09.355Z,1010.29
2018-03-19T12:51:11.188Z,1010.23
2018-03-19T12:53:13.124Z,1010.28
2018-03-19T12:55:14.918Z,1010.22
2018-03-19T12:57:16.624Z,1010.18
2018-03-19T12:59:18.558Z,1010.24
2018-03-19T13:01:21.872Z,1010.15
2018-03-19T13:03:23.739Z,1010.16
2018-03-19T13:05:25.973Z,1010.06
2018-03-19T13:07:27.934Z,1010.09
2018-03-19T13:09:30.019Z,1010.07
2018-03-19T13:11:32.261Z,1010.05
2018-03-19T13:13:34.455Z,1010.13
2018-03-19T13:15:36.841Z,1010.13
2018-03-19T13:17:38.668Z,1010.13
2018-03-19T13:19:40.887Z,1010.18
2018-03-19T13:21:43.270Z,1010.19
2018-03-19T13:23:45.169Z,1010.16
2018-03-19T13:25:46.805Z,1010.11
2018-03-19T13:27:49.240Z,1010.08
2018-03-19T13:29:51.020Z,1010.06
2018-03-19T13:31:53.575Z,1010.06
2018-03-19T13:33:55.907Z,1010.10
2018-03-19T13:35:58.225Z,1010.10
2018-03-19T13:37:59.965Z,1010.10
2018-03-19T13:40:01.921Z,1010.05
2018-03-19T13:42:03.640Z,1010.08
2018-03-19T13:44:05.946Z,1010.10
2018-03-19T13:46:07.735Z,1010.09
2018-03-19T13:48:09.458Z,1010.01
2018-03-19T13:50:11.302Z,1010.05
2018-03-19T13:52:13.785Z,1010.04
2018-03-19T13:54:15.705Z,1010.06
2018-03-19T13:56:17.415Z,1010.14
2018-03-19T13:58:19.908Z,1010.05
2018-03-19T14:00:21.610Z,1010.04
2018-03-19T14:02:23.537Z,1010.00
2018-03-19T14:04:25.175Z,1009.95
2018-03-19T14:06:26.885Z,1009.92
2018-03-19T14:08:28.565Z,1009.96
2018-03-19T14:10:30.514Z,1009.97
2018-03-19T14:12:32.294Z,1009.96
2018-03-19T14:14:34.055Z,1009.94
2018-03-19T14:16:35.940Z,1009.98
2018-03-19T14:18:37.963Z,1010.01
2018-03-19T14:20:39.845Z,1010.04
2018-03-19T14:22:41.767Z,1009.99
2018-03-19T14:24:44.313Z,1010.00
2018-03-19T14:26:46.145Z,1010.04
2018-03-19T14:28:48.563Z,1009.95
2018-03-19T14:30:50.298Z,1010.02
2018-03-19T14:32:52.274Z,1010.05
2018-03-19T14:34:54.104Z,1010.00
2018-03-19T14:36:56.430Z,1009.99
2018-03-19T14:38:58.270Z,1009.98
2018-03-19T14:41:00.221Z,1009.90
2018-03-19T14:43:02.117Z,1009.92
2018-03-19T14:45:04.100Z,1009.98
2018-03-19T14:47:06.628Z,1010.03
2018-03-19T14:49:09.015Z,1009.97
2018-03-19T14:51:10.925Z,1009.94
2018-03-19T14:53:12.787Z,1009.99
2018-03-19T14:55:14.579Z,1009.93
2018-03-19T14:57:17.118Z,1009.90
2018-03-19T14:59:19.683Z,1009.91
2018-03-19T15:01:21.941Z,1009.93
2018-03-19T15:03:23.973Z,1009.91
2018-03-19T15:05:26.527Z,1009.97
2018-03-19T15:07:28.293Z,1009.96
2018-03-19T15:09:30.351Z,1009.98
2018-03-19T15:11:32.722Z,1010.01
2018-03-19T15:13:35.342Z,1010.01
2018-03-19T15:15:37.289Z,1009.99
2018-03-19T15:17:39.775Z,1010.01
2018-03-19T15:19:41.508Z,1010.03
2018-03-19T15:21:44.124Z,1010.00
2018-03-19T15:23:46.842Z,1009.99
2018-03-19T15:25:49.089Z,1009.99
2018-03-19T15:27:51.017Z,1010.03
2018-03-19T15:29:53.847Z,1010.02
2018-03-19T15:31:55.845Z,1010.10
2018-03-19T15:33:57.699Z,1010.13
2018-03-19T15:35:59.408Z,1010.14
2018-03-19T15:38:01.261Z,1010.18
2018-03-19T15:40:03.108Z,1010.16
2018-03-19T15:42:04.898Z,1010.14
2018-03-19T15:44:06.913Z,1010.17
2018-03-19T15:46:09.458Z,1010.13
2018-03-19T15:48:11.701Z,1010.05
2018-03-19T15:50:15.403Z,1010.06
2018-03-19T15:52:17.690Z,1010.10
2018-03-19T15:54:19.982Z,1010.12
2018-03-19T15:56:22.148Z,1010.10
2018-03-19T15:58:24.599Z,1010.08
2018-03-19T16:00:26.751Z,1010.06
2018-03-19T16:02:28.518Z,1010.07
2018-03-19T16:04:30.441Z,1010.11
2018-03-19T16:06:32.298Z,1010.12
2018-03-19T16:08:34.298Z,1010.08
2018-03-19T16:10:36.795Z,1010.09
2018-03-19T16:12:38.530Z,1010.12
2018-03-19T16:14:40.311Z,1010.11
2018-03-19T16:16:42.036Z,1010.15
2018-03-19T16:18:43.799Z,1010.09
2018-03-19T16:20:46.351Z,1010.08
2018-03-19T16:22:48.232Z,1010.09
2018-03-19T16:24:50.781Z,1010.08
2018-03-19T16:26:52.445Z,1010.13
2018-03-19T16:28:54.269Z,1010.13
2018-03-19T16:30:56.207Z,1010.12
2018-03-19T16:32:58.027Z,1010.15
2018-03-19T16:34:59.810Z,1010.14
2018-03-19T16:37:01.465Z,1010.22
2018-03-19T16:39:03.251Z,1010.21
2018-03-19T16:41:05.636Z,1010.30
2018-03-19T16:43:07.311Z,1010.27
2018-03-19T16:45:09.176Z,1010.32
2018-03-19T16:47:11.040Z,1010.37
2018-03-19T16:49:12.849Z,1010.32
2018-03-19T16:51:14.600Z,1010.37
2018-03-19T16:53:16.432Z,1010.40
2018-03-19T16:55:18.080Z,1010.35
2018-03-19T16:57:20.630Z,1010.43
2018-03-19T16:59:22.322Z,1010.46
2018-03-19T17:01:24.281Z,1010.50
2018-03-19T17:03:26.263Z,1010.54
2018-03-19T17:05:28.023Z,1010.52
2018-03-19T17:07:30.373Z,1010.52
2018-03-19T17:09:32.069Z,1010.58
2018-03-19T17:11:34.404Z,1010.57
2018-03-19T17:13:36.261Z,1010.61
2018-03-19T17:15:37.967Z,1010.58
2018-03-19T17:17:39.813Z,1010.59
2018-03-19T17:19:41.434Z,1010.58
2018-03-19T17:21:43.396Z,1010.58
2018-03-19T17:23:45.048Z,1010.59
2018-03-19T17:25:46.764Z,1010.60
2018-03-19T17:27:48.503Z,1010.61
2018-03-19T17:29:50.200Z,1010.60
2018-03-19T17:31:51.889Z,1010.61
2018-03-19T17:33:54.288Z,1010.64
2018-03-19T17:35:56.058Z,1010.68
2018-03-19T17:37:58.486Z,1010.66
2018-03-19T17:40:00.278Z,1010.71
2018-03-19T17:42:01.925Z,1010.71
2018-03-19T17:44:03.776Z,1010.74
2018-03-19T17:46:05.527Z,1010.75
2018-03-19T17:48:07.267Z,1010.80
2018-03-19T17:50:09.045Z,1010.77
2018-03-19T17:52:10.729Z,1010.84
2018-03-19T17:54:12.452Z,1010.85
2018-03-19T17:56:14.739Z,1010.88
2018-03-19T17:58:16.455Z,1010.90
2018-03-19T18:00:18.112Z,1011.00
2018-03-19T18:02:19.794Z,1011.00
2018-03-19T18:04:21.508Z,1010.99
2018-03-19T18:06:23.418Z,1011.01
2018-03-19T18:08:25.610Z,1011.06
2018-03-19T18:10:27.518Z,1011.06
2018-03-19T18:12:29.196Z,1011.09
2018-03-19T18:14:31.429Z,1011.15
2018-03-19T18:16:33.160Z,1011.16
2018-03-19T18:18:35.075Z,1011.21
2018-03-19T18:20:36.851Z,1011.19
2018-03-19T18:22:39.232Z,1011.24
2018-03-19T18:24:40.855Z,1011.26
2018-03-19T18:26:43.376Z,1011.27
2018-03-19T18:28:45.115Z,1011.28
2018-03-19T18:30:46.908Z,1011.32
2018-03-19T18:32:48.819Z,1011.33
2018-03-19T18:34:50.556Z,1011.40
2018-03-19T18:36:52.915Z,1011.43
2018-03-19T18:38:55.181Z,1011.44
2018-03-19T18:40:56.876Z,1011.44
2018-03-19T18:42:58.690Z,1011.44
2018-03-19T18:45:00.452Z,1011.45
2018-03-19T18:47:02.324Z,1011.47
2018-03-19T18:49:04.042Z,1011.50
2018-03-19T18:51:05.771Z,1011.53
2018-03-19T18:53:07.449Z,1011.53
2018-03-19T18:55:09.136Z,1011.56
2018-03-19T18:57:11.272Z,1011.57
2018-03-19T18:59:13.197Z,1011.55
2018-03-19T19:01:15.604Z,1011.60
2018-03-19T19:03:17.356Z,1011.61
2018-03-19T19:05:19.720Z,1011.60
2018-03-19T19:07:21.575Z,1011.60
2018-03-19T19:09:23.333Z,1011.64
2018-03-19T19:11:25.014Z,1011.65
2018-03-19T19:13:26.933Z,1011.68
2018-03-19T19:15:28.634Z,1011.67
2018-03-19T19:17:30.624Z,1011.65
2018-03-19T19:19:32.382Z,1011.67
2018-03-19T19:21:34.335Z,1011.72
2018-03-19T19:23:36.135Z,1011.72
2018-03-19T19:25:37.906Z,1011.75
2018-03-19T19:27:40.086Z,1011.78
2018-03-19T19:29:41.738Z,1011.76
2018-03-19T19:31:44.072Z,1011.79
2018-03-19T19:33:45.658Z,1011.77
2018-03-19T19:35:47.899Z,1011.80
2018-03-19T19:37:49.684Z,1011.83
2018-03-19T19:39:51.386Z,1011.85
2018-03-19T19:41:53.775Z,1011.90
2018-03-19T19:43:55.788Z,1011.92
2018-03-19T19:45:57.733Z,1011.94
2018-03-19T19:47:59.638Z,1011.94
2018-03-19T19:50:01.362Z,1011.93
2018-03-19T19:52:03.228Z,1011.93
2018-03-19T19:54:05.105Z,1011.99
2018-03-19T19:56:06.802Z,1012.00
2018-03-19T19:58:09.008Z,1012.00
2018-03-19T20:00:11.404Z,1012.02
2018-03-19T20:02:13.423Z,1012.09
2018-03-19T20:04:15.336Z,1012.06
2018-03-19T20:06:17.063Z,1012.06
2018-03-19T20:08:19.373Z,1012.02
2018-03-19T20:10:21.349Z,1012.07
2018-03-19T20:12:23.040Z,1012.04
2018-03-19T20:14:25.500Z,1012.03
2018-03-19T20:16:27.627Z,1012.04
2018-03-19T20:18:29.718Z,1012.06
2018-03-19T20:20:31.371Z,1012.05
2018-03-19T20:22:33.167Z,1012.08
2018-03-19T20:24:35.141Z,1012.11
2018-03-19T20:26:36.707Z,1012.11
2018-03-19T20:28:38.456Z,1012.11
2018-03-19T20:30:40.302Z,1012.11
2018-03-19T20:32:42.234Z,1012.14
2018-03-19T20:34:43.901Z,1012.16
2018-03-19T20:36:45.657Z,1012.18
2018-03-19T20:38:47.492Z,1012.16
2018-03-19T20:40:49.747Z,1012.20
2018-03-19T20:42:51.597Z,1012.20
2018-03-19T20:44:53.833Z,1012.19
2018-03-19T20:46:55.705Z,1012.21
2018-03-19T20:48:57.741Z,1012.25
2018-03-19T20:50:59.917Z,1012.27
2018-03-19T20:53:01.594Z,1012.27
2018-03-19T20:55:03.574Z,1012.28
2018-03-19T20:57:05.487Z,1012.27
2018-03-19T20:59:07.414Z,1012.31
2018-03-19T21:01:09.240Z,1012.26
2018-03-19T21:03:10.946Z,1012.25
2018-03-19T21:05:12.778Z,1012.25
2018-03-19T21:07:14.579Z,1012.24
2018-03-19T21:09:16.766Z,1012.21
2018-03-19T21:11:19.128Z,1012.15
2018-03-19T21:13:21.402Z,1012.15
2018-03-19T21:15:23.061Z,1012.14
2018-03-19T21:17:24.720Z,1012.12
2018-03-19T21:19:26.549Z,1012.10
2018-03-19T21:21:28.259Z,1012.11
2018-03-19T21:23:29.984Z,1012.11
2018-03-19T21:25:31.698Z,1012.17
2018-03-19T21:27:33.747Z,1012.23
2018-03-19T21:29:35.528Z,1012.21
2018-03-19T21:31:37.390Z,1012.16
2018-03-19T21:33:39.045Z,1012.18
2018-03-19T21:35:40.793Z,1012.16
2018-03-19T21:37:42.931Z,1012.14
2018-03-19T21:39:45.013Z,1012.13
2018-03-19T21:41:47.128Z,1012.15
2018-03-19T21:43:48.935Z,1012.20
2018-03-19T21:45:50.607Z,1012.23
2018-03-19T21:47:52.321Z,1012.19
2018-03-19T21:49:54.242Z,1012.23
2018-03-19T21:51:56.195Z,1012.21
2018-03-19T21:53:58.121Z,1012.21
2018-03-19T21:55:59.937Z,1012.20
2018-03-19T21:58:01.853Z,1012.19
2018-03-19T22:00:04.045Z,1012.23
2018-03-19T22:02:05.770Z,1012.16
2018-03-19T22:04:07.630Z,1012.27
2018-03-19T22:06:09.331Z,1012.32
2018-03-19T22:08:11.307Z,1012.31
2018-03-19T22:10:13.452Z,1012.33
2018-03-19T22:12:15.073Z,1012.37
2018-03-19T22:14:17.042Z,1012.36
2018-03-19T22:16:18.716Z,1012.39
2018-03-19T22:18:20.556Z,1012.38
2018-03-19T22:20:22.251Z,1012.35
2018-03-19T22:22:24.118Z,1012.33
2018-03-19T22:24:26.071Z,1012.29
2018-03-19T22:26:28.007Z,1012.32
2018-03-19T22:28:29.767Z,1012.33
2018-03-19T22:30:32.047Z,1012.23
2018-03-19T22:32:33.800Z,1012.18
2018-03-19T22:34:35.988Z,1012.20
2018-03-19T22:36:37.626Z,1012.19
2018-03-19T22:38:39.403Z,1012.23
2018-03-19T22:40:41.552Z,1012.22
2018-03-19T22:42:43.364Z,1012.21
2018-03-19T22:44:45.586Z,1012.24
2018-03-19T22:46:47.298Z,1012.17
2018-03-19T22:48:48.955Z,1012.15
2018-03-19T22:50:50.669Z,1012.08
2018-03-19T22:52:52.387Z,1012.12
2018-03-19T22:54:54.062Z,1012.06
2018-03-19T22:56:55.758Z,1012.08
2018-03-19T22:58:57.904Z,1012.04
2018-03-19T23:00:59.766Z,1012.02
2018-03-19T23:03:02.018Z,1012.03
2018-03-19T23:05:03.789Z,1011.95
2018-03-19T23:07:05.736Z,1011.95
2018-03-19T23:09:07.493Z,1011.91
2018-03-19T23:11:09.384Z,1011.88
2018-03-19T23:13:11.595Z,1011.88
2018-03-19T23:15:13.542Z,1011.88
2018-03-19T23:17:15.284Z,1011.88
2018-03-19T23:19:17.547Z,1011.86
2018-03-19T23:21:19.694Z,1011.83
2018-03-19T23:23:21.466Z,1011.78
2018-03-19T23:25:23.447Z,1011.74
2018-03-19T23:27:25.144Z,1011.69
2018-03-19T23:29:26.984Z,1011.62
2018-03-19T23:31:28.784Z,1011.66
2018-03-19T23:33:30.584Z,1011.72
2018-03-19T23:35:32.821Z,1011.72
2018-03-19T23:37:34.485Z,1011.75
2018-03-19T23:39:36.164Z,1011.72
2018-03-19T23:41:38.406Z,1011.82
2018-03-19T23:43:40.083Z,1011.82
2018-03-19T23:45:42.259Z,1011.80
2018-03-19T23:47:43.893Z,1011.78
2018-03-19T23:49:45.631Z,1011.75
2018-03-19T23:51:47.274Z,1011.74
2018-03-19T23:53:49.123Z,1011.74
2018-03-19T23:55:50.895Z,1011.74
2018-03-19T23:57:52.765Z,1011.83
2018-03-19T23:59:54.593Z,1011.81
